Bei Facebook empfehlenBei Twitter postenGoogle plusPinterest

Das Wetter im Erzgebirge am 26.09.2015

Wetter und Klima am 26.09.2015 Holzhau im Erzgebirge (630m ü.NN)
Letzte gemessene Temperatur und Uhrzeit der Messung23:45:00 Uhr4.80 °C
Temperatur (Maximum / Höchstwert) und Uhrzeit der Messung15:00:00 Uhr14.90 °C
Temperatur (Minimum / Tiefstwert) und Uhrzeit der Messung23:45:004.80 °C
Errechneter Absolutwert der Temperaturschwankungen zwischen Tmin und Tmax des Tages10.10 K
Errechnete Tagesmitteltemperatur9.71354 °C
Gesamt - Niederschlag des Tages (in flüssiger Form)0.00 Liter / m²
Luftdruck (Maximum / Höchstwert) und Zeitpunkt der Messung23:15:00 Uhr1023.80 hPa
Luftdruck (Minimum / Tiefstwert) und Zeitpunkt der Messung00:45:00 Uhr1018.80 hPa
Errechneter Absolutwert der Luftdruckschwankungen des Tages5.00 hPa
Höchste gemessene Windgeschwindigkeit und Uhrzeit der Messung14:45:00 Uhr8.64 km/h
Errechnete Windhäufigkeit in Relation zu den Messwerten des Tages2.08333 %
Niedrigste Windkühle (Windchill) und Zeitpunkt der Messung23:45:00 Uhr4.80 °C
Taupunkt (Maximum / Höchstwert) und Uhrzeit der Messung14:15:00 Uhr11.10 °C
Taupunkt (Minimum / Tiefstwert) und Uhrzeit der Messung23:45:003.30 °C
Anzahl der automatisch eingelesenen Messwerte 96

Detaillierte Wetter- und Klima- Messwerte für den 26.09.2015 in Holzhau im Erzgebirge (630m ü.NN)
ZeitTemperaturLuftdruckRel. LuftfeuchteWindWindrichtungWindchillTaupunktNiederschlag l/m²
23:45:004.80 °C1023.50 hPa90.00 %3.30 °C 
23:30:005.10 °C1023.50 hPa89.00 %3.40 °C 
23:15:005.50 °C1023.80 hPa89.00 %3.80 °C 
23:00:006.10 °C1023.80 hPa89.00 %4.40 °C 
22:45:006.70 °C1023.70 hPa89.00 %5.00 °C 
22:30:007.10 °C1023.70 hPa89.00 %5.40 °C 
22:15:007.40 °C1023.70 hPa88.00 %5.50 °C 
22:00:007.70 °C1023.50 hPa88.00 %5.80 °C 
21:45:008.00 °C1023.60 hPa88.00 %6.10 °C 
21:30:008.10 °C1023.40 hPa88.00 %6.20 °C 
21:15:008.30 °C1023.50 hPa87.00 %6.30 °C 
21:00:008.60 °C1023.30 hPa87.00 %6.60 °C 
20:45:008.90 °C1023.30 hPa87.00 %6.90 °C 
20:30:009.10 °C1023.20 hPa87.00 %7.10 °C 
20:15:009.30 °C1023.10 hPa86.00 %7.10 °C 
20:00:009.40 °C1023.00 hPa86.00 %7.20 °C 
19:45:009.50 °C1022.90 hPa85.00 %7.10 °C 
19:30:009.80 °C1022.70 hPa85.00 %7.40 °C 
19:15:009.90 °C1022.80 hPa84.00 %7.30 °C 
19:00:0010.20 °C1022.80 hPa84.00 %7.60 °C 
18:45:0010.40 °C1022.70 hPa83.00 %7.60 °C 
18:30:0010.60 °C1022.80 hPa83.00 %7.80 °C 
18:15:0010.90 °C1022.60 hPa83.00 %8.10 °C 
18:00:0011.20 °C1022.50 hPa82.00 %8.20 °C 
17:45:0011.50 °C1022.60 hPa82.00 %8.50 °C 
17:30:0011.60 °C1022.30 hPa82.00 %8.60 °C 
17:15:0011.30 °C1022.20 hPa81.00 %8.20 °C 
17:00:0011.50 °C1022.10 hPa81.00 %8.40 °C 
16:45:0011.60 °C1021.90 hPa80.00 %8.30 °C 
16:30:0011.70 °C1022.10 hPa79.00 %8.20 °C 
16:15:0012.10 °C1022.00 hPa78.00 %8.40 °C 
16:00:0012.20 °C1022.00 hPa77.00 %8.30 °C 
15:45:0012.40 °C1022.10 hPa76.00 %8.30 °C 
15:30:0013.20 °C1022.00 hPa74.00 %8.70 °C 
15:15:0014.40 °C1022.00 hPa73.00 %9.60 °C 
15:00:0014.90 °C1021.70 hPa74.00 %10.30 °C 
14:45:0014.80 °C1021.60 hPa75.00 %8.64 km/hNNW14.50 °C10.40 °C 
14:30:0014.60 °C1021.70 hPa76.00 %10.40 °C 
14:15:0014.90 °C1021.70 hPa78.00 %11.10 °C 
14:00:0014.40 °C1021.70 hPa79.00 %10.80 °C 
13:45:0013.30 °C1021.60 hPa82.00 %3.60 km/hWSW13.30 °C10.30 °C 
13:30:0013.30 °C1021.90 hPa82.00 %10.30 °C 
13:15:0013.40 °C1021.90 hPa84.00 %10.80 °C 
13:00:0013.00 °C1021.60 hPa86.00 %10.70 °C 
12:45:0012.70 °C1021.50 hPa87.00 %10.60 °C 
12:30:0012.40 °C1021.50 hPa89.00 %10.60 °C 
12:15:0012.20 °C1021.40 hPa90.00 %10.60 °C 
12:00:0011.50 °C1021.40 hPa91.00 %10.10 °C 
11:45:0011.20 °C1021.30 hPa92.00 %9.90 °C 
11:30:0010.90 °C1021.20 hPa92.00 %9.70 °C 
11:15:0010.60 °C1020.90 hPa93.00 %9.50 °C 
11:00:0010.40 °C1020.70 hPa93.00 %9.30 °C 
10:45:0010.40 °C1020.70 hPa93.00 %9.30 °C 
10:30:0010.50 °C1020.70 hPa94.00 %9.60 °C 
10:15:0010.20 °C1020.70 hPa94.00 %9.30 °C 
10:00:009.50 °C1020.60 hPa94.00 %8.60 °C 
09:45:009.30 °C1020.40 hPa94.00 %8.40 °C 
09:30:009.20 °C1020.30 hPa94.00 %8.30 °C 
09:15:009.30 °C1020.20 hPa94.00 %8.40 °C 
09:00:009.30 °C1020.20 hPa94.00 %8.40 °C 
08:45:008.90 °C1020.10 hPa94.00 %8.00 °C 
08:30:008.60 °C1020.00 hPa94.00 %7.70 °C 
08:15:008.40 °C1019.80 hPa94.00 %7.50 °C 
08:00:008.10 °C1020.00 hPa94.00 %7.20 °C 
07:45:007.60 °C1019.80 hPa94.00 %6.70 °C 
07:30:007.40 °C1019.60 hPa93.00 %6.30 °C 
07:15:007.40 °C1019.60 hPa93.00 %6.30 °C 
07:00:007.40 °C1019.50 hPa93.00 %6.30 °C 
06:45:007.50 °C1019.30 hPa93.00 %6.40 °C 
06:30:007.50 °C1019.10 hPa93.00 %6.40 °C 
06:15:007.50 °C1019.20 hPa93.00 %6.40 °C 
06:00:007.60 °C1019.00 hPa93.00 %6.50 °C 
05:45:007.60 °C1019.00 hPa93.00 %6.50 °C 
05:30:007.50 °C1019.20 hPa92.00 %6.30 °C 
05:15:007.50 °C1019.00 hPa92.00 %6.30 °C 
05:00:007.50 °C1019.20 hPa92.00 %6.30 °C 
04:45:007.60 °C1019.10 hPa93.00 %6.50 °C 
04:30:007.80 °C1018.90 hPa93.00 %6.70 °C 
04:15:008.10 °C1019.00 hPa92.00 %6.90 °C 
04:00:008.20 °C1018.90 hPa92.00 %7.00 °C 
03:45:008.30 °C1019.10 hPa92.00 %7.10 °C 
03:30:008.40 °C1018.90 hPa92.00 %7.20 °C 
03:15:008.50 °C1019.00 hPa92.00 %7.30 °C 
03:00:008.70 °C1018.90 hPa92.00 %7.50 °C 
02:45:008.70 °C1018.90 hPa92.00 %7.50 °C 
02:30:008.80 °C1019.20 hPa92.00 %7.60 °C 
02:15:008.90 °C1018.90 hPa91.00 %7.50 °C 
02:00:009.00 °C1018.90 hPa92.00 %7.80 °C 
01:45:009.20 °C1018.90 hPa92.00 %8.00 °C 
01:30:009.30 °C1019.00 hPa91.00 %7.90 °C 
01:15:009.50 °C1019.00 hPa91.00 %8.10 °C 
01:00:009.60 °C1018.90 hPa91.00 %8.20 °C 
00:45:009.60 °C1018.80 hPa91.00 %8.20 °C 
00:30:009.50 °C1018.90 hPa91.00 %8.10 °C 
00:15:009.30 °C1018.80 hPa91.00 %7.90 °C 
00:00:009.20 °C1018.90 hPa90.00 %7.60 °C 

Permanenter Link zu dieser Seite: Wetter im Erzgebirge am 26.09.2015
Performance-Info: Die Erstellung der Seite / Statistik(en) / Tabelle(n) erforderte 5 Datenbankserver-Abfrage(n) und dauerte 101 Millisekunden. (Dieser Messwert ist von der Gesamt-Auslastung des Servers abhängig.)
Erzgebirge - Wetter | Erzgebirge - Wetter (Mobilgeräte) | Komplette Klimadatenbank